Time;durP1;ratioP1;P1;durP2;ratioP2;P2;SDS_P1;SDS_P2;PMS_P1;PMS_P2;Temp;Humidity;BMP_temperature;BMP_pressure;BME280_temperature;BME280_humidity;BME280_pressure;Samples;Min_cycle;Max_cycle;Signal;HPM_P1;HPM_P2
2021/01/02 00:01:17;;;;;;;12.98;7.28;;;;;;;0.18;76.98;96352.90;1752187;82;21191;-89
2021/01/02 00:03:53;;;;;;;13.38;7.15;;;;;;;0.12;77.01;96331.59;1752413;82;21304;-89
2021/01/02 00:06:31;;;;;;;11.57;5.83;;;;;;;0.23;76.86;96355.64;1751005;82;21139;-89
2021/01/02 00:09:05;;;;;;;8.93;4.33;;;;;;;0.18;76.79;96317.71;1752292;81;21160;-89
2021/01/02 00:12:03;;;;;;;11.57;6.78;;;;;;;0.33;76.68;96323.33;1752174;82;21165;-89
2021/01/02 00:15:09;;;;;;;11.20;6.30;;;;;;;0.36;76.59;96351.56;1752277;82;21124;-89
2021/01/02 00:17:48;;;;;;;8.63;4.12;;;;;;;0.47;76.42;96342.21;1751553;82;21132;-89
2021/01/02 00:20:57;;;;;;;11.90;5.25;;;;;;;0.54;76.03;96337.17;1751885;81;21167;-90
2021/01/02 00:23:54;;;;;;;9.30;5.78;;;;;;;0.55;75.84;96357.02;1752344;82;21499;-89
2021/01/02 00:26:34;;;;;;;6.28;4.25;;;;;;;0.63;75.85;96349.41;1752312;82;21476;-89
2021/01/02 00:29:04;;;;;;;10.85;5.78;;;;;;;0.58;75.80;96348.78;1744197;81;21137;-90
2021/01/02 00:31:43;;;;;;;13.45;6.58;;;;;;;0.58;75.81;96344.08;1752430;82;21169;-90
2021/01/02 00:34:41;;;;;;;10.68;5.58;;;;;;;0.58;75.81;96344.08;1752027;82;21152;-90
2021/01/02 00:37:23;;;;;;;11.95;5.75;;;;;;;0.65;75.61;96357.02;1752242;81;21266;-90
2021/01/02 00:40:14;;;;;;;11.73;6.10;;;;;;;0.65;75.61;96357.02;1752244;81;21180;-90
2021/01/02 00:45:31;;;;;;;13.53;6.80;;;;;;;0.74;75.65;96366.13;1878098;76;23045;-88
2021/01/02 00:48:00;;;;;;;9.60;5.65;;;;;;;0.71;75.60;96366.58;1821026;77;21120;-88
2021/01/02 00:50:28;;;;;;;14.90;6.92;;;;;;;0.70;75.52;96366.27;1783554;80;21123;-87
2021/01/02 00:53:16;;;;;;;14.10;7.42;;;;;;;0.67;75.52;96371.42;1768573;81;21131;-88
2021/01/02 00:56:30;;;;;;;10.60;6.78;;;;;;;0.66;75.61;96374.25;1789055;80;21483;-89
2021/01/02 00:59:26;;;;;;;12.80;6.47;;;;;;;0.67;75.62;96370.63;1793185;79;21147;-89
2021/01/02 01:02:32;;;;;;;13.20;6.78;;;;;;;0.65;75.61;96363.53;1793273;80;21423;-89
2021/01/02 01:05:08;;;;;;;10.88;6.42;;;;;;;0.51;75.47;96358.49;1793273;79;21147;-89
2021/01/02 01:07:38;;;;;;;11.63;6.30;;;;;;;0.48;75.52;96371.19;1793116;80;21123;-89
2021/01/02 01:10:10;;;;;;;12.18;6.58;;;;;;;0.38;75.62;96382.13;1793530;79;21111;-89
2021/01/02 01:12:44;;;;;;;10.03;5.75;;;;;;;0.33;75.76;96380.69;1793226;79;21116;-89
2021/01/02 01:15:12;;;;;;;13.03;6.60;;;;;;;0.32;76.10;96379.10;1793425;79;21115;-89
2021/01/02 01:18:14;;;;;;;11.70;6.77;;;;;;;0.32;76.10;96379.10;1793311;80;21108;-89
2021/01/02 01:20:53;;;;;;;11.70;6.35;;;;;;;0.34;76.07;96386.70;1788692;80;21424;-89
2021/01/02 01:23:54;;;;;;;11.15;6.85;;;;;;;0.39;76.17;96387.63;1793046;79;21151;-89
2021/01/02 01:26:52;;;;;;;12.25;4.47;;;;;;;0.43;76.18;96383.58;1793104;79;21452;-90
2021/01/02 01:29:30;;;;;;;10.10;6.37;;;;;;;0.44;76.04;96397.42;1793160;80;21507;-89
2021/01/02 01:31:59;;;;;;;9.20;5.15;;;;;;;0.44;76.04;96397.42;1792977;80;21127;-89
2021/01/02 01:34:28;;;;;;;12.20;5.20;;;;;;;0.37;76.08;96394.88;1793395;80;21151;-89
2021/01/02 01:36:55;;;;;;;13.03;6.83;;;;;;;0.37;76.22;96393.57;1764249;80;21379;-89
2021/01/02 01:39:24;;;;;;;13.62;6.70;;;;;;;0.32;76.20;96388.22;1793149;79;21174;-89
2021/01/02 01:42:07;;;;;;;10.90;5.35;;;;;;;0.25;76.27;96393.50;1793261;80;21104;-90
2021/01/02 01:44:49;;;;;;;11.63;5.58;;;;;;;0.16;76.45;96391.42;1792215;79;21183;-89
2021/01/02 01:47:38;;;;;;;14.85;7.65;;;;;;;-0.03;76.44;96405.73;1792560;80;21140;-89
2021/01/02 01:50:26;;;;;;;12.13;6.20;;;;;;;-0.03;76.44;96405.73;1793056;80;21146;-89
2021/01/02 01:53:07;;;;;;;13.13;6.95;;;;;;;-0.11;76.71;96402.63;1793127;79;21158;-89
2021/01/02 01:56:06;;;;;;;13.30;7.10;;;;;;;-0.34;77.05;96405.84;1790578;80;21130;-89
2021/01/02 01:58:56;;;;;;;12.68;6.30;;;;;;;-0.34;77.05;96405.84;1781934;80;21532;-88
2021/01/02 02:01:31;;;;;;;12.45;6.55;;;;;;;-0.34;77.43;96401.42;1792892;80;21139;-89
2021/01/02 02:04:19;;;;;;;14.68;6.85;;;;;;;-0.29;77.59;96399.47;1762980;80;21155;-89
2021/01/02 02:06:50;;;;;;;15.25;6.42;;;;;;;-0.45;77.60;96374.77;1792540;79;21147;-89
2021/01/02 02:09:22;;;;;;;12.25;6.15;;;;;;;-0.12;78.01;96383.59;1792111;80;21273;-89
2021/01/02 02:12:04;;;;;;;11.28;5.83;;;;;;;-0.12;78.01;96383.59;1792542;80;21617;-89
2021/01/02 02:14:45;;;;;;;12.75;6.25;;;;;;;0.08;78.16;96396.91;1792445;80;21471;-89
2021/01/02 02:17:29;;;;;;;12.75;6.10;;;;;;;0.20;77.90;96386.84;1878003;76;22890;-88
2021/01/02 02:20:12;;;;;;;14.25;7.08;;;;;;;0.22;77.82;96387.94;1819679;77;21111;-88
2021/01/02 02:22:41;;;;;;;11.43;5.92;;;;;;;0.26;77.77;96387.27;1836954;77;21531;-89
2021/01/02 02:25:16;;;;;;;12.13;7.20;;;;;;;0.28;77.99;96379.23;1852823;77;21641;-88
2021/01/02 02:27:47;;;;;;;10.75;6.25;;;;;;;0.49;77.75;96387.12;1801853;80;21135;-88
2021/01/02 02:30:18;;;;;;;10.28;5.55;;;;;;;0.53;77.57;96395.58;1793077;80;21120;-89
2021/01/02 02:32:48;;;;;;;10.03;5.58;;;;;;;0.48;77.49;96401.17;1764421;80;21128;-89
2021/01/02 02:35:19;;;;;;;14.55;8.00;;;;;;;0.42;77.57;96404.13;1793451;80;21175;-89
2021/01/02 02:37:52;;;;;;;11.28;6.58;;;;;;;0.27;77.41;96400.59;1793151;80;21162;-89
2021/01/02 02:40:23;;;;;;;11.12;5.20;;;;;;;0.12;77.38;96376.70;1793178;79;21120;-88
2021/01/02 02:43:04;;;;;;;11.57;7.10;;;;;;;0.19;77.72;96408.72;1793151;79;21528;-88
2021/01/02 02:45:33;;;;;;;14.55;7.62;;;;;;;0.03;77.83;96385.84;1793102;79;21459;-89
2021/01/02 02:48:04;;;;;;;12.63;7.20;;;;;;;0.12;77.89;96410.59;1793047;80;21530;-89
2021/01/02 02:50:32;;;;;;;12.10;7.30;;;;;;;0.12;78.12;96416.30;1792698;80;21468;-89
2021/01/02 02:53:13;;;;;;;12.10;6.85;;;;;;;0.11;78.24;96408.20;1764490;80;21194;-89
2021/01/02 02:55:43;;;;;;;;;;;;;;;0.15;78.30;96414.09;1796042;80;21143;-89
2021/01/02 02:58:13;;;;;;;12.40;6.58;;;;;;;0.20;78.32;96414.73;1793076;79;20108;-89
2021/01/02 03:00:40;;;;;;;12.18;6.03;;;;;;;0.18;78.25;96397.21;1778290;79;21135;-89
2021/01/02 03:03:10;;;;;;;9.83;5.42;;;;;;;0.35;78.24;96413.86;1788238;80;21130;-89
2021/01/02 03:05:40;;;;;;;10.55;5.35;;;;;;;0.25;78.21;96384.88;1774734;81;21130;-89
2021/01/02 03:08:07;;;;;;;10.55;5.40;;;;;;;0.52;78.12;96410.94;1788160;80;21170;-89
2021/01/02 03:10:35;;;;;;;10.05;5.33;;;;;;;0.57;78.06;96415.01;1774819;81;21273;-89
2021/01/02 03:13:02;;;;;;;9.40;5.00;;;;;;;0.53;77.96;96408.62;1788105;80;21119;-90
2021/01/02 03:15:35;;;;;;;10.53;5.25;;;;;;;0.53;77.81;96407.31;1774487;81;21163;-89
2021/01/02 03:18:02;;;;;;;9.45;5.20;;;;;;;0.51;77.83;96402.83;1787175;80;21151;-89
2021/01/02 03:20:30;;;;;;;8.70;5.03;;;;;;;0.47;77.75;96397.77;1786532;80;21500;-89
2021/01/02 03:22:57;;;;;;;7.30;4.08;;;;;;;0.42;77.71;96401.52;1792864;80;21494;-89
2021/01/02 03:25:24;;;;;;;10.72;4.80;;;;;;;0.38;77.77;96403.49;1792856;80;21128;-89
2021/01/02 03:27:56;;;;;;;7.83;4.60;;;;;;;0.27;77.93;96402.41;1792435;80;21163;-89
2021/01/02 03:30:26;;;;;;;8.10;4.70;;;;;;;0.03;78.46;96408.50;1792206;80;21143;-89
2021/01/02 03:32:53;;;;;;;8.48;4.65;;;;;;;-0.12;79.17;96412.25;1792351;80;21139;-89
2021/01/02 03:35:20;;;;;;;9.00;4.50;;;;;;;-0.17;79.76;96409.48;1792126;80;21649;-89
2021/01/02 03:37:49;;;;;;;8.55;4.00;;;;;;;-0.20;79.95;96417.73;1792435;80;21606;-89
2021/01/02 03:40:18;;;;;;;10.45;4.92;;;;;;;-0.23;80.21;96416.06;1792131;80;21277;-89
2021/01/02 03:42:47;;;;;;;7.30;4.42;;;;;;;-0.17;80.25;96425.61;1792393;80;21108;-89
2021/01/02 03:45:17;;;;;;;11.53;4.93;;;;;;;-0.16;79.90;96425.91;1792442;80;21131;-89
2021/01/02 03:47:48;;;;;;;8.00;4.92;;;;;;;-0.30;79.72;96422.11;1792309;80;21123;-89
2021/01/02 03:50:17;;;;;;;8.83;4.90;;;;;;;-0.38;79.81;96428.91;1791791;80;21542;-89
2021/01/02 03:52:44;;;;;;;11.03;5.33;;;;;;;-0.39;79.94;96435.64;1792174;80;21270;-89
2021/01/02 03:55:13;;;;;;;7.58;4.28;;;;;;;-0.44;79.80;96432.35;1792222;80;21267;-89
2021/01/02 03:57:40;;;;;;;8.45;4.53;;;;;;;-0.44;79.86;96424.54;1792204;80;21143;-89
2021/01/02 04:00:09;;;;;;;10.30;5.78;;;;;;;-0.44;79.85;96432.86;1792215;80;21652;-89
2021/01/02 04:02:36;;;;;;;8.23;4.72;;;;;;;-0.44;79.84;96418.03;1792206;80;21290;-89
2021/01/02 04:05:06;;;;;;;8.28;4.03;;;;;;;-0.53;79.56;96402.91;1792132;80;21301;-89
2021/01/02 04:07:33;;;;;;;9.10;4.92;;;;;;;-0.50;79.66;96426.70;1792185;80;21293;-89
2021/01/02 04:10:00;;;;;;;7.62;4.25;;;;;;;-0.64;79.79;96407.78;1792251;80;21329;-89
2021/01/02 04:12:27;;;;;;;8.68;4.75;;;;;;;-0.52;79.98;96428.73;1792241;80;21653;-89
2021/01/02 04:14:53;;;;;;;8.88;4.33;;;;;;;-0.51;80.07;96425.11;1792096;80;21107;-89
2021/01/02 04:17:20;;;;;;;5.78;3.20;;;;;;;-0.50;80.18;96420.20;1794749;80;21151;-89
2021/01/02 04:19:47;;;;;;;9.30;4.95;;;;;;;-0.59;80.09;96417.55;1795476;80;21518;-88
2021/01/02 04:22:14;;;;;;;6.50;3.87;;;;;;;-0.86;79.88;96405.23;1795503;79;21134;-88
2021/01/02 04:24:41;;;;;;;8.88;4.60;;;;;;;-0.78;80.16;96432.31;1795511;79;21127;-89
2021/01/02 04:27:08;;;;;;;8.68;4.40;;;;;;;-0.77;80.78;96434.41;1795539;80;21108;-89
2021/01/02 04:29:36;;;;;;;10.48;4.75;;;;;;;-0.77;80.78;96434.41;1795551;80;21146;-89
2021/01/02 04:32:03;;;;;;;8.63;4.67;;;;;;;-0.75;80.78;96433.19;1795485;79;21162;-89
2021/01/02 04:34:30;;;;;;;8.30;4.12;;;;;;;-0.65;80.80;96432.73;1795711;80;21147;-88
2021/01/02 04:36:57;;;;;;;8.20;3.87;;;;;;;-0.57;80.88;96436.36;1795589;80;21148;-88
2021/01/02 04:39:24;;;;;;;7.42;3.95;;;;;;;-0.66;80.85;96434.53;1795351;80;21142;-88
2021/01/02 04:41:51;;;;;;;8.05;3.90;;;;;;;-0.69;81.03;96432.87;1795486;80;21131;-89
2021/01/02 04:44:19;;;;;;;12.68;6.55;;;;;;;-0.69;81.03;96432.87;1795679;79;21151;-89
2021/01/02 04:46:48;;;;;;;11.50;5.33;;;;;;;-0.83;80.51;96433.46;1795490;80;21131;-89
2021/01/02 04:49:15;;;;;;;7.73;3.13;;;;;;;-0.96;80.66;96437.45;1795331;79;21514;-88
2021/01/02 04:51:42;;;;;;;9.63;5.37;;;;;;;-1.01;81.47;96438.05;1795490;79;21143;-88
2021/01/02 04:54:09;;;;;;;9.48;4.28;;;;;;;-0.92;82.13;96432.11;1795613;80;21142;-89
2021/01/02 04:56:38;;;;;;;7.97;4.05;;;;;;;-0.91;81.72;96445.41;1795497;80;21534;-88
2021/01/02 04:59:11;;;;;;;15.55;7.47;;;;;;;-0.91;81.72;96445.41;1795441;80;21144;-88
2021/01/02 05:01:41;;;;;;;8.10;4.58;;;;;;;-1.02;81.15;96438.27;1795489;80;21084;-88
2021/01/02 05:04:08;;;;;;;15.90;8.58;;;;;;;-1.02;81.15;96438.27;1795651;80;21464;-89
2021/01/02 05:06:37;;;;;;;10.08;5.65;;;;;;;-1.19;81.52;96445.77;1795499;80;21143;-88
2021/01/02 05:09:07;;;;;;;10.08;4.92;;;;;;;-1.27;81.88;96440.31;1795469;80;21142;-89
2021/01/02 05:11:39;;;;;;;8.65;4.40;;;;;;;-1.15;81.98;96444.84;1795587;79;21483;-88
2021/01/02 05:14:08;;;;;;;11.78;4.87;;;;;;;-1.06;81.91;96448.80;1795967;79;21136;-88
2021/01/02 05:16:37;;;;;;;9.53;4.55;;;;;;;-0.99;81.89;96446.44;1794289;79;21147;-89
2021/01/02 05:19:11;;;;;;;8.68;4.55;;;;;;;-0.99;81.87;96447.74;1791845;80;21148;-89
2021/01/02 05:21:48;;;;;;;9.15;4.25;;;;;;;-0.85;81.94;96454.97;1792076;80;21285;-88
2021/01/02 05:24:20;;;;;;;6.67;3.47;;;;;;;-0.85;81.94;96454.97;1792152;80;21092;-89
2021/01/02 05:27:01;;;;;;;7.33;3.85;;;;;;;-0.74;81.89;96450.91;1792203;80;21305;-88
2021/01/02 05:29:31;;;;;;;6.22;3.60;;;;;;;-0.69;81.73;96457.09;1792114;80;21488;-88
2021/01/02 05:32:04;;;;;;;4.00;2.75;;;;;;;-0.69;81.79;96456.30;1792245;80;21135;-88
2021/01/02 05:34:34;;;;;;;7.15;3.33;;;;;;;-0.75;81.73;96454.02;1792341;80;21147;-88
2021/01/02 05:37:08;;;;;;;6.25;3.80;;;;;;;-0.92;81.23;96459.43;1792341;80;21273;-88
2021/01/02 05:39:49;;;;;;;6.78;3.85;;;;;;;-1.23;81.50;96464.89;1792249;80;21143;-88
2021/01/02 05:42:12;;;;;;;4.62;3.10;;;;;;;-1.23;81.50;96464.89;1791488;80;21306;-88
2021/01/02 05:44:40;;;;;;;5.90;2.80;;;;;;;-1.42;82.13;96436.36;1792307;80;21301;-88
2021/01/02 05:47:15;;;;;;;4.72;2.95;;;;;;;-1.42;82.13;96436.36;1792126;80;21284;-88
2021/01/02 05:49:48;;;;;;;7.03;3.20;;;;;;;-1.29;82.34;96452.70;1790778;80;21135;-88
2021/01/02 05:52:17;;;;;;;5.20;3.33;;;;;;;-1.21;82.22;96456.88;1792118;80;21155;-88
2021/01/02 05:54:50;;;;;;;6.55;2.55;;;;;;;-1.14;82.26;96460.73;1792130;80;21530;-88
2021/01/02 05:57:30;;;;;;;5.50;3.10;;;;;;;-1.08;82.06;96454.72;1792393;80;21617;-88
2021/01/02 05:59:59;;;;;;;4.80;2.90;;;;;;;-1.13;81.93;96461.83;1792293;80;21120;-88
2021/01/02 06:02:30;;;;;;;4.72;2.40;;;;;;;-0.99;82.20;96461.26;1792158;80;21621;-88
2021/01/02 06:05:07;;;;;;;5.37;3.17;;;;;;;-1.00;82.04;96466.96;1792168;80;21122;-88
2021/01/02 06:07:37;;;;;;;5.55;2.80;;;;;;;-1.15;81.70;96460.45;1792218;80;21335;-88
2021/01/02 06:10:10;;;;;;;4.50;2.50;;;;;;;-1.16;81.96;96463.55;1792142;80;21511;-88
2021/01/02 06:12:41;;;;;;;4.47;2.55;;;;;;;-1.09;82.09;96470.83;1792040;80;21119;-88
2021/01/02 06:15:14;;;;;;;;;;;;;;;-1.03;82.14;96473.09;1794802;80;21269;-88
2021/01/02 06:17:46;;;;;;;4.05;2.27;;;;;;;-0.98;82.20;96468.08;1794314;80;20225;-88
2021/01/02 06:20:17;;;;;;;3.87;2.50;;;;;;;-0.91;82.22;96473.53;1794955;79;21276;-88
2021/01/02 06:22:45;;;;;;;3.50;2.20;;;;;;;-0.81;82.22;96473.59;1795511;80;21278;-88
2021/01/02 06:25:15;;;;;;;3.25;2.50;;;;;;;-0.77;81.84;96480.75;1795367;79;21313;-87
2021/01/02 06:27:45;;;;;;;4.53;2.65;;;;;;;-0.77;81.84;96480.75;1795849;79;21150;-88
2021/01/02 06:30:18;;;;;;;4.70;2.50;;;;;;;-0.79;81.64;96482.77;1795726;79;21542;-88
2021/01/02 06:32:49;;;;;;;5.65;2.42;;;;;;;-0.87;81.53;96484.31;1795555;80;21127;-88
2021/01/02 06:35:22;;;;;;;6.72;2.72;;;;;;;-0.92;81.46;96488.05;1795560;79;21138;-88
2021/01/02 06:38:01;;;;;;;4.25;2.72;;;;;;;-0.96;81.40;96494.19;1795436;80;21084;-88
2021/01/02 06:40:38;;;;;;;5.85;2.40;;;;;;;-1.14;81.40;96482.34;1795354;79;21169;-88
2021/01/02 06:43:11;;;;;;;5.75;3.00;;;;;;;-1.04;81.34;96502.72;1795381;80;21313;-88
2021/01/02 06:45:43;;;;;;;6.37;3.22;;;;;;;-1.04;81.34;96502.72;1795356;80;21088;-88
2021/01/02 06:48:25;;;;;;;5.17;3.20;;;;;;;-1.01;81.68;96501.80;1795539;80;21128;-88
2021/01/02 06:50:59;;;;;;;6.22;3.40;;;;;;;-0.98;81.76;96506.61;1794916;80;21225;-88
2021/01/02 06:53:38;;;;;;;4.85;2.60;;;;;;;-0.92;81.81;96499.26;1795423;80;21123;-88
2021/01/02 06:56:11;;;;;;;6.60;3.00;;;;;;;-0.87;81.81;96503.83;1795299;80;21289;-88
2021/01/02 06:58:48;;;;;;;6.30;3.00;;;;;;;-0.85;81.70;96496.61;1795493;79;21629;-88
2021/01/02 07:01:26;;;;;;;5.58;2.62;;;;;;;-0.89;81.76;96478.52;1795527;80;21127;-89
2021/01/02 07:03:54;;;;;;;7.08;3.20;;;;;;;-0.73;81.76;96501.45;1795550;79;21096;-88
2021/01/02 07:06:25;;;;;;;6.28;3.42;;;;;;;-0.75;81.47;96491.75;1795517;79;21134;-88
2021/01/02 07:09:09;;;;;;;6.08;3.15;;;;;;;-0.90;81.40;96468.62;1795686;79;21162;-89
2021/01/02 07:11:43;;;;;;;5.90;3.12;;;;;;;-0.71;81.63;96479.91;1795435;80;21144;-88
2021/01/02 07:14:19;;;;;;;12.88;6.62;;;;;;;-0.78;81.50;96471.36;1795662;80;21142;-89
2021/01/02 07:16:53;;;;;;;9.20;4.72;;;;;;;-0.78;81.50;96471.36;1795349;80;21143;-89
2021/01/02 07:19:30;;;;;;;9.13;5.25;;;;;;;-0.77;81.43;96487.77;1795102;80;21208;-88
2021/01/02 07:22:13;;;;;;;9.68;5.17;;;;;;;-0.69;81.44;96490.13;1791149;80;21234;-88
2021/01/02 07:25:06;;;;;;;8.33;5.08;;;;;;;-0.67;81.47;96494.12;1795594;80;21126;-88
2021/01/02 07:27:38;;;;;;;6.30;3.37;;;;;;;-0.54;81.50;96503.66;1795557;80;21154;-88
2021/01/02 07:30:14;;;;;;;6.37;3.52;;;;;;;-0.54;81.50;96503.66;1795482;80;21274;-88
2021/01/02 07:32:45;;;;;;;6.53;3.62;;;;;;;-0.45;81.82;96509.38;1795593;79;21119;-88
2021/01/02 07:35:16;;;;;;;6.67;3.70;;;;;;;-0.47;81.88;96495.78;1795533;80;21124;-88
2021/01/02 07:37:46;;;;;;;5.08;3.27;;;;;;;-0.25;81.92;96510.56;1795497;79;21184;-88
2021/01/02 07:40:16;;;;;;;7.78;3.65;;;;;;;-0.13;81.94;96516.69;1795751;79;21301;-88
2021/01/02 07:42:55;;;;;;;9.95;5.17;;;;;;;-0.03;81.90;96521.69;1795598;79;21100;-89
2021/01/02 07:45:28;;;;;;;6.47;3.67;;;;;;;-0.02;81.67;96523.78;1795791;79;21134;-88
2021/01/02 07:47:59;;;;;;;8.55;4.30;;;;;;;-0.03;81.64;96531.31;1795560;80;21138;-88
2021/01/02 07:50:31;;;;;;;14.20;8.00;;;;;;;-0.03;81.62;96528.20;1795104;79;21200;-88
2021/01/02 07:53:01;;;;;;;37.65;18.15;;;;;;;-0.11;81.74;96540.72;1795509;80;21138;-89
2021/01/02 07:55:31;;;;;;;31.77;16.27;;;;;;;-0.20;81.91;96538.86;1795521;79;21163;-88
2021/01/02 07:58:00;;;;;;;29.55;15.18;;;;;;;-0.16;82.13;96539.23;1795704;79;21138;-88
2021/01/02 08:00:28;;;;;;;19.82;10.90;;;;;;;-0.10;82.28;96536.59;1795677;79;21526;-88
2021/01/02 08:03:05;;;;;;;25.45;12.20;;;;;;;-0.02;82.07;96531.60;1795460;80;21506;-89
2021/01/02 08:05:34;;;;;;;16.97;9.68;;;;;;;0.04;82.21;96520.85;1795557;79;21140;-89
2021/01/02 08:08:05;;;;;;;8.10;4.60;;;;;;;-0.02;82.13;96525.89;1795395;79;21289;-88
2021/01/02 08:10:33;;;;;;;7.47;3.85;;;;;;;0.14;82.21;96522.45;1795531;80;21309;-89
2021/01/02 08:13:00;;;;;;;6.03;3.45;;;;;;;0.18;82.31;96509.30;1795609;79;21156;-88
2021/01/02 08:15:35;;;;;;;6.08;3.60;;;;;;;0.18;82.31;96509.30;1795485;79;21285;-89
2021/01/02 08:18:08;;;;;;;19.10;8.88;;;;;;;0.35;82.28;96528.58;1793670;79;21633;-89
2021/01/02 08:20:39;;;;;;;16.65;11.00;;;;;;;0.45;82.23;96526.80;1791776;80;21111;-89
2021/01/02 08:23:08;;;;;;;13.78;6.90;;;;;;;0.36;82.21;96519.75;1792233;80;21642;-89
2021/01/02 08:25:36;;;;;;;11.25;5.75;;;;;;;0.32;82.18;96521.70;1792222;80;21626;-88
2021/01/02 08:28:05;;;;;;;6.90;3.87;;;;;;;0.37;82.34;96527.86;1792153;80;21159;-89
2021/01/02 08:30:33;;;;;;;6.75;3.70;;;;;;;0.43;82.49;96530.12;1792235;80;21148;-88
2021/01/02 08:33:01;;;;;;;6.28;3.05;;;;;;;0.51;82.56;96531.92;1792109;80;21158;-88
2021/01/02 08:35:39;;;;;;;6.12;3.17;;;;;;;0.62;82.42;96530.92;1792108;80;21136;-89
2021/01/02 08:38:09;;;;;;;11.85;5.75;;;;;;;0.82;82.35;96532.30;1791107;80;21289;-89
2021/01/02 08:40:42;;;;;;;8.80;4.10;;;;;;;0.84;82.36;96542.51;1792466;80;21092;-89
2021/01/02 08:43:27;;;;;;;18.20;8.43;;;;;;;0.77;82.38;96552.23;1792090;80;21277;-89
2021/01/02 08:46:04;;;;;;;12.53;7.20;;;;;;;0.76;82.48;96548.83;1792317;80;21270;-89
2021/01/02 08:48:32;;;;;;;10.30;5.45;;;;;;;0.76;82.55;96542.81;1792062;80;21135;-90
2021/01/02 08:50:59;;;;;;;7.85;4.70;;;;;;;0.81;82.63;96548.17;1791680;80;21127;-89
2021/01/02 08:53:32;;;;;;;10.72;5.85;;;;;;;0.93;82.76;96556.07;1792077;80;21285;-88
2021/01/02 08:56:01;;;;;;;24.85;12.25;;;;;;;1.12;82.99;96555.03;1792218;80;21649;-89
2021/01/02 08:58:34;;;;;;;22.35;9.45;;;;;;;1.35;82.89;96550.44;1788267;80;21532;-89
2021/01/02 09:01:02;;;;;;;17.20;9.40;;;;;;;1.57;82.58;96561.21;1792106;80;21516;-88
2021/01/02 09:03:30;;;;;;;18.65;9.70;;;;;;;1.85;82.49;96560.09;1792103;80;21257;-89
2021/01/02 09:05:57;;;;;;;17.85;7.62;;;;;;;2.05;82.21;96559.78;1792197;80;21622;-90
2021/01/02 09:08:24;;;;;;;15.38;7.50;;;;;;;2.30;81.95;96563.00;1792062;80;21314;-90
2021/01/02 09:10:58;;;;;;;18.27;9.53;;;;;;;2.64;82.02;96576.30;1792085;80;21245;-89
2021/01/02 09:13:27;;;;;;;10.98;5.75;;;;;;;3.01;81.67;96562.95;1792147;80;21148;-89
2021/01/02 09:16:05;;;;;;;11.30;5.65;;;;;;;3.35;81.35;96565.19;1792157;80;21298;-90
2021/01/02 09:18:37;;;;;;;6.47;3.92;;;;;;;3.69;81.00;96548.55;1794052;80;21165;-90
2021/01/02 09:21:16;;;;;;;6.25;3.77;;;;;;;4.06;80.33;96549.41;1795131;79;21432;-89
2021/01/02 09:23:44;;;;;;;6.95;3.70;;;;;;;4.38;79.57;96552.28;1795469;80;21111;-90
2021/01/02 09:26:29;;;;;;;5.22;3.08;;;;;;;4.62;78.73;96549.73;1795524;80;21273;-90
2021/01/02 09:29:00;;;;;;;5.45;2.67;;;;;;;4.89;78.45;96564.27;1795384;79;21653;-90
2021/01/02 09:31:28;;;;;;;3.98;2.05;;;;;;;5.20;78.14;96553.63;1795440;79;21123;-90
2021/01/02 09:33:56;;;;;;;2.65;1.72;;;;;;;5.44;77.44;96544.17;1768750;80;21503;-90
2021/01/02 09:36:25;;;;;;;3.95;2.35;;;;;;;5.67;77.09;96555.73;1795493;79;21132;-90
2021/01/02 09:38:52;;;;;;;6.08;3.27;;;;;;;5.92;76.56;96558.64;1795410;79;21265;-90
2021/01/02 09:41:23;;;;;;;12.07;5.72;;;;;;;6.06;75.27;96554.29;1795372;80;21147;-91
2021/01/02 09:43:54;;;;;;;6.50;3.60;;;;;;;6.21;75.33;96557.84;1795510;79;21270;-91
2021/01/02 09:46:24;;;;;;;5.20;3.17;;;;;;;6.31;74.31;96570.27;1795478;80;21107;-91
2021/01/02 09:48:54;;;;;;;5.25;3.17;;;;;;;6.40;74.21;96562.19;1795545;80;21499;-91
2021/01/02 09:51:24;;;;;;;5.40;3.30;;;;;;;6.59;74.06;96563.88;1764381;81;21149;-90
2021/01/02 09:53:52;;;;;;;6.97;3.10;;;;;;;6.70;73.34;96560.80;1764182;81;21159;-90
2021/01/02 09:56:19;;;;;;;5.80;3.02;;;;;;;6.75;72.73;96556.87;1764131;81;21196;-90
2021/01/02 09:58:46;;;;;;;5.62;3.05;;;;;;;6.93;73.23;96552.52;1764150;81;21510;-90
2021/01/02 10:01:17;;;;;;;4.62;2.75;;;;;;;7.11;72.92;96556.55;1764149;81;21553;-91
2021/01/02 10:03:45;;;;;;;5.50;3.00;;;;;;;7.14;70.98;96544.95;1764124;81;21525;-90
2021/01/02 10:06:13;;;;;;;6.50;3.77;;;;;;;7.07;70.96;96551.00;1764201;81;21127;-90
2021/01/02 10:08:41;;;;;;;7.17;3.77;;;;;;;7.08;70.21;96547.31;1764014;81;21147;-90
2021/01/02 10:11:08;;;;;;;5.20;3.33;;;;;;;7.09;70.15;96550.21;1764172;81;21539;-90
2021/01/02 10:13:35;;;;;;;8.10;3.65;;;;;;;7.14;70.17;96546.80;1764174;81;21142;-90
2021/01/02 10:16:02;;;;;;;19.73;11.15;;;;;;;7.17;69.56;96541.53;1764080;81;21175;-90
2021/01/02 10:18:29;;;;;;;15.18;9.13;;;;;;;7.17;68.59;96546.27;1763968;81;21168;-90
2021/01/02 10:20:56;;;;;;;7.75;4.05;;;;;;;7.09;67.49;96546.26;1790954;80;21173;-91
2021/01/02 10:23:23;;;;;;;7.80;4.10;;;;;;;7.06;67.75;96542.83;1795468;79;21273;-90
2021/01/02 10:25:51;;;;;;;7.87;4.17;;;;;;;7.01;67.33;96538.83;1795671;79;21147;-90
2021/01/02 10:28:18;;;;;;;7.72;5.25;;;;;;;7.05;66.83;96541.77;1795309;80;21136;-90
2021/01/02 10:30:45;;;;;;;9.93;5.60;;;;;;;7.12;67.23;96525.97;1795395;80;21146;-90
2021/01/02 10:33:14;;;;;;;9.03;5.33;;;;;;;7.20;67.12;96531.81;1795639;80;21140;-90
2021/01/02 10:35:41;;;;;;;12.23;7.17;;;;;;;7.20;66.80;96527.33;1795633;80;21147;-90
2021/01/02 10:38:08;;;;;;;21.87;10.65;;;;;;;7.23;67.12;96529.44;1795424;79;21319;-90
2021/01/02 10:40:35;;;;;;;15.38;8.53;;;;;;;7.33;67.66;96519.47;1795686;79;21134;-90
2021/01/02 10:43:02;;;;;;;14.30;7.22;;;;;;;7.44;67.17;96513.14;1795512;79;21233;-90
2021/01/02 10:45:31;;;;;;;14.80;7.60;;;;;;;7.55;66.39;96515.28;1795873;79;21139;-91
2021/01/02 10:47:59;;;;;;;14.18;7.28;;;;;;;7.58;66.22;96512.12;1795673;80;21507;-90
2021/01/02 10:50:26;;;;;;;14.63;8.83;;;;;;;7.68;66.88;96505.55;1795127;79;21123;-91
2021/01/02 10:52:53;;;;;;;17.75;8.33;;;;;;;7.85;67.06;96494.74;1795798;80;21174;-88
2021/01/02 10:55:20;;;;;;;15.35;8.00;;;;;;;7.91;66.51;96491.06;1795509;79;21277;-87
2021/01/02 10:57:47;;;;;;;12.50;6.58;;;;;;;7.94;65.51;96488.69;1795677;79;21100;-88
2021/01/02 11:00:16;;;;;;;13.25;6.83;;;;;;;7.73;64.78;96490.50;1795663;79;21158;-88
2021/01/02 11:02:43;;;;;;;13.10;7.58;;;;;;;7.61;64.51;96486.55;1795582;80;21166;-88
2021/01/02 11:05:12;;;;;;;14.55;8.13;;;;;;;7.55;65.31;96487.05;1795516;80;21130;-88
2021/01/02 11:07:40;;;;;;;12.45;7.08;;;;;;;7.48;65.29;96487.06;1795656;79;21139;-87
2021/01/02 11:10:09;;;;;;;13.88;8.05;;;;;;;7.45;65.49;96491.78;1795489;79;21148;-88
2021/01/02 11:12:36;;;;;;;13.48;8.00;;;;;;;7.41;65.83;96494.67;1795496;80;21175;-89
2021/01/02 11:15:07;;;;;;;11.63;7.10;;;;;;;7.32;65.12;96498.07;1795646;79;21166;-88
2021/01/02 11:17:35;;;;;;;10.93;6.65;;;;;;;7.20;65.31;96496.22;1795521;80;21147;-89
2021/01/02 11:20:03;;;;;;;14.23;7.70;;;;;;;7.13;66.03;96499.88;1795037;79;21269;-89
2021/01/02 11:22:30;;;;;;;13.38;7.72;;;;;;;7.19;66.61;96503.86;1795673;80;21495;-88
2021/01/02 11:24:58;;;;;;;12.58;7.78;;;;;;;7.27;66.51;96491.48;1795500;79;21138;-89
2021/01/02 11:27:25;;;;;;;11.80;7.15;;;;;;;7.25;66.16;96493.05;1796058;80;21455;-88
2021/01/02 11:29:52;;;;;;;12.93;7.60;;;;;;;7.23;66.16;96490.42;1795423;80;21507;-88
2021/01/02 11:32:19;;;;;;;11.68;6.50;;;;;;;7.25;66.50;96490.42;1795609;79;21482;-88
2021/01/02 11:34:48;;;;;;;13.38;7.42;;;;;;;7.29;66.77;96485.41;1795478;80;21261;-88
2021/01/02 11:37:16;;;;;;;12.53;7.35;;;;;;;7.34;66.36;96486.23;1795748;80;21151;-87
2021/01/02 11:39:43;;;;;;;13.60;8.13;;;;;;;7.32;66.48;96487.52;1795477;79;21685;-88
2021/01/02 11:42:14;;;;;;;13.70;8.03;;;;;;;7.28;66.35;96486.47;1795592;79;21127;-88
2021/01/02 11:44:41;;;;;;;10.75;7.03;;;;;;;7.22;66.36;96483.03;1795662;79;21127;-89
2021/01/02 11:47:08;;;;;;;12.93;6.87;;;;;;;7.20;66.29;96481.72;1795554;80;21164;-88
2021/01/02 11:49:37;;;;;;;12.50;7.58;;;;;;;7.17;66.00;96488.27;1795034;79;21281;-89
2021/01/02 11:52:08;;;;;;;16.07;11.73;;;;;;;7.12;65.85;96478.52;1795573;80;21136;-88
2021/01/02 11:54:35;;;;;;;12.63;8.48;;;;;;;7.10;66.17;96482.47;1795596;79;21092;-88
2021/01/02 11:57:08;;;;;;;14.90;8.83;;;;;;;7.08;66.24;96489.84;1795572;80;21531;-89
2021/01/02 11:59:35;;;;;;;13.30;8.30;;;;;;;7.07;66.51;96487.73;1795493;79;21527;-89
2021/01/02 12:02:06;;;;;;;12.07;7.58;;;;;;;7.09;66.68;96490.11;1795552;80;21690;-90